Terminal Aerodrome Forecast
Issued by NWS Bismarck, ND

Home | Current Version | Previous Version | Graphics & Text | Print | Product List | Glossary On
Versions: 1 2 3 4 5 6 7 8 9 10 11 12 13 14 15
000
FTUS43 KBIS 200520
TAFBIS
TAF
KBIS 200520Z 2006/2106 36005KT 4SM -SN OVC035
     FM201200 33007KT P6SM OVC025
     FM201900 29009KT P6SM BKN050
     FM210200 26006KT P6SM SCT250=

USA.gov is the U.S. government's official web portal to all federal, state and local government web resources and services.